Time;durP1;ratioP1;P1;durP2;ratioP2;P2;SDS_P1;SDS_P2;PMS_P1;PMS_P2;Temp;Humidity;BMP_temperature;BMP_pressure;BME280_temperature;BME280_humidity;BME280_pressure;Samples;Min_cycle;Max_cycle;Signal;HPM_P1;HPM_P2
2022/07/06 00:02:03;;;;;;;6.13;2.50;;;14.10;87.30;;;;;;5048350;28;20029;-47
2022/07/06 00:04:30;;;;;;;8.52;1.42;;;14.10;87.30;;;;;;5047800;28;20086;-46
2022/07/06 00:06:57;;;;;;;5.13;1.33;;;14.00;87.20;;;;;;5048549;28;20025;-46
2022/07/06 00:09:25;;;;;;;9.98;1.90;;;14.10;87.30;;;;;;5048996;28;20033;-46
2022/07/06 00:11:51;;;;;;;5.63;1.95;;;14.10;87.20;;;;;;5048420;28;20041;-46
2022/07/06 00:14:18;;;;;;;5.82;1.88;;;14.10;87.20;;;;;;5048719;28;20029;-46
2022/07/06 00:16:53;;;;;;;5.32;1.48;;;14.10;87.30;;;;;;5048836;28;20029;-46
2022/07/06 00:19:20;;;;;;;6.97;1.73;;;14.00;87.30;;;;;;5048160;28;20025;-46
2022/07/06 00:21:50;;;;;;;7.03;1.75;;;14.10;87.30;;;;;;5048768;28;20358;-46
2022/07/06 00:24:17;;;;;;;9.88;1.48;;;14.00;87.30;;;;;;5027631;28;20463;-45
2022/07/06 00:26:44;;;;;;;5.32;1.55;;;14.00;87.40;;;;;;5030789;28;20037;-46
2022/07/06 00:29:11;;;;;;;4.78;1.85;;;14.00;87.50;;;;;;5052106;28;20051;-45
2022/07/06 00:31:38;;;;;;;6.45;1.63;;;14.00;87.40;;;;;;5051192;28;20580;-46
2022/07/06 00:34:05;;;;;;;4.10;1.60;;;14.00;87.50;;;;;;5052359;28;20028;-45
2022/07/06 00:36:32;;;;;;;11.48;2.38;;;13.90;87.40;;;;;;5052383;28;20021;-46
2022/07/06 00:39:01;;;;;;;4.05;1.80;;;13.90;87.50;;;;;;5052558;28;20037;-45
2022/07/06 00:41:27;;;;;;;5.90;1.52;;;13.90;87.40;;;;;;5051848;28;20461;-45
2022/07/06 00:43:56;;;;;;;7.82;2.05;;;13.90;87.40;;;;;;5052037;28;20040;-45
2022/07/06 00:46:31;;;;;;;5.30;1.40;;;13.90;87.20;;;;;;5052164;28;20043;-46
2022/07/06 00:48:59;;;;;;;3.95;1.70;;;13.90;87.30;;;;;;5051666;28;20122;-45
2022/07/06 00:51:31;;;;;;;3.22;1.27;;;13.90;87.10;;;;;;5032154;28;20030;-44
2022/07/06 00:54:04;;;;;;;4.40;1.98;;;13.90;87.10;;;;;;5039799;28;20311;-44
2022/07/06 00:56:32;;;;;;;4.97;1.60;;;13.90;87.10;;;;;;5052251;28;20063;-45
2022/07/06 00:59:03;;;;;;;5.35;1.27;;;13.90;87.00;;;;;;5051157;28;20112;-45
2022/07/06 01:01:29;;;;;;;5.85;1.10;;;13.90;86.90;;;;;;5052047;28;20044;-44
2022/07/06 01:03:55;;;;;;;4.22;1.52;;;13.90;87.00;;;;;;5052167;28;20029;-45
2022/07/06 01:06:22;;;;;;;3.22;1.10;;;13.80;86.80;;;;;;5051827;28;20425;-45
2022/07/06 01:08:50;;;;;;;7.65;1.58;;;13.80;86.70;;;;;;5051988;28;20035;-44
2022/07/06 01:11:19;;;;;;;4.63;1.27;;;13.80;86.70;;;;;;5051762;28;20031;-45
2022/07/06 01:13:48;;;;;;;4.85;1.00;;;13.80;86.60;;;;;;5050878;28;20461;-44
2022/07/06 01:16:19;;;;;;;9.48;1.85;;;13.80;86.80;;;;;;5052079;28;20052;-44
2022/07/06 01:18:47;;;;;;;4.18;1.92;;;13.80;86.70;;;;;;5051414;28;20033;-45
2022/07/06 01:21:14;;;;;;;3.30;1.40;;;13.80;86.60;;;;;;5051286;28;20513;-45
2022/07/06 01:23:46;;;;;;;4.22;1.35;;;13.80;86.50;;;;;;5051334;28;20040;-43
2022/07/06 01:26:19;;;;;;;4.03;1.02;;;13.80;86.50;;;;;;5050547;28;20025;-44
2022/07/06 01:28:48;;;;;;;3.92;1.00;;;13.70;86.30;;;;;;5031216;28;20030;-44
2022/07/06 01:31:22;;;;;;;3.13;1.30;;;13.70;86.30;;;;;;5046941;28;20036;-43
2022/07/06 01:33:55;;;;;;;8.10;2.08;;;13.80;86.30;;;;;;5046360;28;20112;-43
2022/07/06 01:36:23;;;;;;;4.28;1.33;;;13.70;86.30;;;;;;5048206;28;20029;-47
2022/07/06 01:39:08;;;;;;;4.80;1.50;;;13.70;86.20;;;;;;5048846;28;20029;-45
2022/07/06 01:41:35;;;;;;;3.72;1.20;;;13.70;86.30;;;;;;5048785;28;20488;-44
2022/07/06 01:44:03;;;;;;;4.03;1.23;;;13.70;86.30;;;;;;5050849;28;20033;-44
2022/07/06 01:46:30;;;;;;;7.80;1.40;;;13.70;86.30;;;;;;5050925;28;20429;-43
2022/07/06 01:48:57;;;;;;;5.78;1.30;;;13.70;86.20;;;;;;5050187;28;20181;-45
2022/07/06 01:51:24;;;;;;;3.92;1.08;;;13.70;86.30;;;;;;5050766;28;20021;-43
2022/07/06 01:53:52;;;;;;;4.20;1.77;;;13.70;86.20;;;;;;5050724;28;20037;-42
2022/07/06 01:56:19;;;;;;;3.05;1.35;;;13.60;86.10;;;;;;5030790;28;20095;-43
2022/07/06 01:58:47;;;;;;;1.88;0.90;;;13.60;85.90;;;;;;5050189;28;20090;-43
2022/07/06 02:01:17;;;;;;;3.88;1.00;;;13.60;85.70;;;;;;5050626;28;20118;-43
2022/07/06 02:03:45;;;;;;;3.17;1.00;;;13.60;85.80;;;;;;5043086;28;20048;-43
2022/07/06 02:06:12;;;;;;;2.40;0.80;;;13.60;85.80;;;;;;5050644;28;20134;-42
2022/07/06 02:08:40;;;;;;;5.00;1.08;;;13.60;85.50;;;;;;5050358;28;20037;-43
2022/07/06 02:11:09;;;;;;;6.20;1.05;;;13.60;85.50;;;;;;5050339;28;20041;-43
2022/07/06 02:13:41;;;;;;;3.70;1.33;;;13.50;85.00;;;;;;5050470;28;20114;-42
2022/07/06 02:16:07;;;;;;;3.80;0.82;;;13.50;84.50;;;;;;5042897;28;20175;-45
2022/07/06 02:18:34;;;;;;;6.43;1.25;;;13.40;83.80;;;;;;5050164;28;20104;-42
2022/07/06 02:21:01;;;;;;;2.88;0.90;;;13.40;83.80;;;;;;5050141;28;20068;-42
2022/07/06 02:23:28;;;;;;;3.72;0.82;;;13.40;82.80;;;;;;5050278;28;20029;-42
2022/07/06 02:25:55;;;;;;;4.80;1.00;;;13.40;82.40;;;;;;5049874;28;20100;-42
2022/07/06 02:28:24;;;;;;;4.47;1.15;;;13.40;82.30;;;;;;5049308;28;20070;-43
2022/07/06 02:30:51;;;;;;;3.22;0.65;;;13.40;82.10;;;;;;5049308;28;20068;-42
2022/07/06 02:33:17;;;;;;;3.08;0.60;;;13.40;81.80;;;;;;5049033;28;20076;-43
2022/07/06 02:35:46;;;;;;;3.17;0.63;;;13.40;81.50;;;;;;5049196;28;20039;-44
2022/07/06 02:38:13;;;;;;;6.82;1.85;;;13.40;81.40;;;;;;5048464;28;20037;-42
2022/07/06 02:40:40;;;;;;;5.38;1.00;;;13.40;81.10;;;;;;5049185;28;20052;-41
2022/07/06 02:43:07;;;;;;;1.10;0.65;;;13.40;81.20;;;;;;5048095;28;20660;-42
2022/07/06 02:45:34;;;;;;;5.88;0.98;;;13.40;80.90;;;;;;5049378;28;20036;-41
2022/07/06 02:48:01;;;;;;;2.65;0.70;;;13.40;80.50;;;;;;5049557;28;20114;-43
2022/07/06 02:50:28;;;;;;;4.80;0.70;;;13.40;81.00;;;;;;5050100;28;20032;-41
2022/07/06 02:52:55;;;;;;;4.32;0.63;;;13.50;81.20;;;;;;5049909;28;20032;-42
2022/07/06 02:55:22;;;;;;;3.22;1.48;;;13.50;81.00;;;;;;5049930;28;20100;-42
2022/07/06 02:57:49;;;;;;;6.13;1.63;;;13.50;81.30;;;;;;5048465;28;20037;-43
2022/07/06 03:00:19;;;;;;;2.97;0.80;;;13.50;81.30;;;;;;5049925;28;20509;-41
2022/07/06 03:02:45;;;;;;;2.97;1.10;;;13.50;81.70;;;;;;5050093;28;20395;-42
2022/07/06 03:05:12;;;;;;;5.85;0.82;;;13.50;81.80;;;;;;5049628;28;20454;-41
2022/07/06 03:07:44;;;;;;;2.22;0.57;;;13.50;81.90;;;;;;5049439;28;20439;-41
2022/07/06 03:10:11;;;;;;;5.35;0.88;;;13.50;81.80;;;;;;5049781;28;20431;-43
2022/07/06 03:12:38;;;;;;;3.05;0.77;;;13.50;82.00;;;;;;5049942;28;20044;-42
2022/07/06 03:15:05;;;;;;;4.25;1.25;;;13.50;82.00;;;;;;5048885;28;20358;-43
2022/07/06 03:17:32;;;;;;;2.97;0.88;;;13.50;82.40;;;;;;5048249;28;20029;-41
2022/07/06 03:19:59;;;;;;;2.53;0.60;;;13.50;82.60;;;;;;5049226;28;20043;-44
2022/07/06 03:22:26;;;;;;;4.93;1.20;;;13.50;82.40;;;;;;5047888;28;20455;-42
2022/07/06 03:24:53;;;;;;;5.30;0.75;;;13.50;82.80;;;;;;5049243;28;20053;-41
2022/07/06 03:27:20;;;;;;;5.82;1.15;;;13.50;82.60;;;;;;5049183;28;20089;-43
2022/07/06 03:29:50;;;;;;;4.18;0.70;;;13.50;82.50;;;;;;5047965;28;20474;-42
2022/07/06 03:32:17;;;;;;;2.75;0.70;;;13.40;82.90;;;;;;5049372;28;20454;-41
2022/07/06 03:34:44;;;;;;;2.40;0.90;;;13.40;83.00;;;;;;5047568;28;20043;-41
2022/07/06 03:37:11;;;;;;;3.17;0.80;;;13.50;83.30;;;;;;5047559;28;20130;-41
2022/07/06 03:39:38;;;;;;;3.70;0.80;;;13.50;83.50;;;;;;5048784;28;20025;-43
2022/07/06 03:42:05;;;;;;;1.65;0.70;;;13.50;83.90;;;;;;5048903;28;20661;-44
2022/07/06 03:44:30;;;;;;;3.78;1.10;;;13.50;84.10;;;;;;5048725;28;20038;-43
2022/07/06 03:46:57;;;;;;;4.70;0.98;;;13.50;84.30;;;;;;5031141;28;20035;-42
2022/07/06 03:49:27;;;;;;;2.38;0.88;;;13.50;84.40;;;;;;5047325;28;20025;-43
2022/07/06 03:51:54;;;;;;;;;;;13.50;84.30;;;;;;5049041;28;20119;-42
2022/07/06 03:54:25;;;;;;;4.47;0.77;;;13.50;84.30;;;;;;5048488;28;19909;-42
2022/07/06 03:56:52;;;;;;;4.20;0.85;;;13.50;84.30;;;;;;5049244;28;20099;-42
2022/07/06 03:59:21;;;;;;;5.05;1.05;;;13.50;84.40;;;;;;5048258;28;20025;-41
2022/07/06 04:01:47;;;;;;;2.70;1.10;;;13.50;84.60;;;;;;5048391;28;20464;-43
2022/07/06 04:04:16;;;;;;;6.10;1.23;;;13.60;84.70;;;;;;5048734;28;20051;-43
2022/07/06 04:06:42;;;;;;;6.93;1.75;;;13.60;84.80;;;;;;5048644;28;20056;-41
2022/07/06 04:09:09;;;;;;;3.03;0.93;;;13.60;84.70;;;;;;5048265;28;20025;-41
2022/07/06 04:11:36;;;;;;;3.85;1.23;;;13.60;84.60;;;;;;5047459;28;20025;-41
2022/07/06 04:14:03;;;;;;;4.70;1.52;;;13.60;84.50;;;;;;5047270;28;20025;-41
2022/07/06 04:16:30;;;;;;;3.28;1.05;;;13.60;84.60;;;;;;5048206;28;20068;-43
2022/07/06 04:18:57;;;;;;;4.13;1.10;;;13.70;84.60;;;;;;5047226;28;21433;-43
2022/07/06 04:21:23;;;;;;;7.88;1.27;;;13.70;84.40;;;;;;5048542;28;20036;-41
2022/07/06 04:23:51;;;;;;;4.47;0.98;;;13.70;84.70;;;;;;5048357;28;20032;-43
2022/07/06 04:26:19;;;;;;;5.95;1.38;;;13.80;84.60;;;;;;5048758;28;20461;-42
2022/07/06 04:28:50;;;;;;;5.30;1.95;;;13.90;84.80;;;;;;5048271;28;20128;-42
2022/07/06 04:31:17;;;;;;;6.07;1.05;;;13.90;84.60;;;;;;5047363;28;20433;-42
2022/07/06 04:33:44;;;;;;;4.63;1.00;;;13.90;84.40;;;;;;5048488;28;20029;-45
2022/07/06 04:36:11;;;;;;;4.28;1.17;;;13.90;84.10;;;;;;5048278;28;20025;-43
2022/07/06 04:38:38;;;;;;;5.18;1.27;;;13.90;84.00;;;;;;5048463;28;20029;-42
2022/07/06 04:41:03;;;;;;;4.00;1.02;;;13.90;84.00;;;;;;5048298;28;20078;-42
2022/07/06 04:43:30;;;;;;;5.88;1.55;;;14.00;84.10;;;;;;5048603;28;20353;-42
2022/07/06 04:45:57;;;;;;;5.45;1.45;;;14.00;84.20;;;;;;5047164;28;20044;-42
2022/07/06 04:48:24;;;;;;;4.18;1.13;;;14.10;84.20;;;;;;5048376;28;20036;-43
2022/07/06 04:50:50;;;;;;;6.78;1.33;;;14.20;84.10;;;;;;5048176;28;20029;-42
2022/07/06 04:53:16;;;;;;;5.47;1.20;;;14.20;84.10;;;;;;5048013;28;20029;-42
2022/07/06 04:55:42;;;;;;;4.18;1.00;;;14.20;84.40;;;;;;5047171;28;20027;-43
2022/07/06 04:58:07;;;;;;;3.08;1.25;;;14.30;84.00;;;;;;5046781;28;20140;-42
2022/07/06 05:00:33;;;;;;;6.20;1.48;;;14.30;84.30;;;;;;5048109;28;20025;-43
2022/07/06 05:03:01;;;;;;;8.48;1.48;;;14.30;84.30;;;;;;5046760;28;20033;-43
2022/07/06 05:05:26;;;;;;;2.67;0.85;;;14.40;84.10;;;;;;5047925;28;20037;-43
2022/07/06 05:07:52;;;;;;;4.13;1.50;;;14.40;83.90;;;;;;5047463;28;20667;-41
2022/07/06 05:10:18;;;;;;;3.33;1.33;;;14.40;83.70;;;;;;5046269;28;20025;-45
2022/07/06 05:12:43;;;;;;;7.30;1.70;;;14.40;83.70;;;;;;5047974;28;20017;-43
2022/07/06 05:15:09;;;;;;;4.55;1.15;;;14.50;83.60;;;;;;5051137;28;20040;-44
2022/07/06 05:17:35;;;;;;;3.08;1.13;;;14.50;83.90;;;;;;5051172;28;20319;-42
2022/07/06 05:20:01;;;;;;;6.53;1.50;;;14.60;83.60;;;;;;5051008;28;20047;-43
2022/07/06 05:22:30;;;;;;;4.85;1.40;;;14.70;83.40;;;;;;5050809;28;20033;-44
2022/07/06 05:24:58;;;;;;;2.90;1.30;;;14.70;83.40;;;;;;5050914;28;20462;-43
2022/07/06 05:27:24;;;;;;;10.38;1.98;;;14.80;83.40;;;;;;5051048;28;20102;-44
2022/07/06 05:29:50;;;;;;;4.25;1.98;;;14.80;83.40;;;;;;5050847;28;20029;-43
2022/07/06 05:32:15;;;;;;;3.30;1.35;;;14.80;83.30;;;;;;5050246;28;20021;-44
2022/07/06 05:34:41;;;;;;;4.20;1.08;;;14.80;83.20;;;;;;5051094;28;20435;-42
2022/07/06 05:37:06;;;;;;;4.95;1.10;;;14.90;83.40;;;;;;5050875;28;20481;-43
2022/07/06 05:39:35;;;;;;;2.70;1.20;;;14.80;83.60;;;;;;5050946;28;20029;-43
2022/07/06 05:42:00;;;;;;;5.68;1.50;;;14.80;83.30;;;;;;5045639;28;20477;-45
2022/07/06 05:44:26;;;;;;;4.20;1.00;;;14.70;83.40;;;;;;5051021;28;20033;-43
2022/07/06 05:50:11;;;;;;;4.88;1.30;;;14.80;83.50;;;;;;5051005;28;20124;-44
2022/07/06 05:52:26;;;;;;;4.80;1.92;;;14.90;83.30;;;;;;5051059;28;20063;-43
2022/07/06 05:54:52;;;;;;;5.75;0.95;;;15.00;83.40;;;;;;5032710;28;20021;-46
2022/07/06 05:57:18;;;;;;;3.35;1.15;;;15.10;82.30;;;;;;5051179;28;20040;-43
2022/07/06 05:59:43;;;;;;;3.55;1.00;;;15.30;82.50;;;;;;5050790;28;20112;-44
2022/07/06 06:02:09;;;;;;;1.92;0.70;;;15.30;82.20;;;;;;5050804;28;20028;-43
2022/07/06 06:04:34;;;;;;;5.47;1.00;;;15.40;81.50;;;;;;5050621;28;20029;-44
2022/07/06 06:07:02;;;;;;;3.83;1.20;;;15.40;81.70;;;;;;5050407;28;20037;-44
2022/07/06 06:09:28;;;;;;;5.22;1.30;;;15.50;81.60;;;;;;5050681;28;20054;-43
2022/07/06 06:11:53;;;;;;;3.15;0.70;;;15.40;79.70;;;;;;5050218;28;20052;-43
2022/07/06 06:14:19;;;;;;;1.85;0.60;;;15.20;78.70;;;;;;5050478;28;20033;-44
2022/07/06 06:16:44;;;;;;;3.20;0.57;;;15.20;78.40;;;;;;5050329;28;20024;-46
2022/07/06 06:19:10;;;;;;;4.00;0.55;;;15.20;77.90;;;;;;5050070;28;20527;-44
2022/07/06 06:21:35;;;;;;;4.00;0.68;;;15.20;77.50;;;;;;5050283;28;20055;-45
2022/07/06 06:24:04;;;;;;;6.47;1.33;;;15.20;77.20;;;;;;5049981;28;20052;-43
2022/07/06 06:26:29;;;;;;;3.90;0.50;;;15.20;77.80;;;;;;5050597;28;20368;-44
2022/07/06 06:28:55;;;;;;;3.88;0.70;;;15.30;78.40;;;;;;5050029;28;20037;-44
2022/07/06 06:31:20;;;;;;;4.88;0.70;;;15.40;78.20;;;;;;5050652;28;20029;-44
2022/07/06 06:33:46;;;;;;;3.75;1.27;;;15.40;77.90;;;;;;5050095;28;20201;-44
2022/07/06 06:36:12;;;;;;;3.35;1.02;;;15.40;77.90;;;;;;5032513;28;20029;-43
2022/07/06 06:38:38;;;;;;;2.35;0.57;;;15.60;77.70;;;;;;5049775;28;20025;-44
2022/07/06 06:41:03;;;;;;;1.65;0.90;;;15.70;77.10;;;;;;5049608;28;20427;-44
2022/07/06 06:43:31;;;;;;;4.28;0.65;;;15.70;76.20;;;;;;5032035;28;20037;-44
2022/07/06 06:45:57;;;;;;;4.40;0.90;;;15.90;75.30;;;;;;5049531;28;20044;-46
2022/07/06 06:48:22;;;;;;;1.83;0.60;;;16.00;75.10;;;;;;5049301;28;20044;-44
2022/07/06 06:50:48;;;;;;;3.88;0.70;;;16.10;74.40;;;;;;5058788;28;20095;-44
2022/07/06 06:53:14;;;;;;;2.83;0.73;;;16.30;74.20;;;;;;5069517;28;20028;-44
2022/07/06 06:55:40;;;;;;;3.05;0.50;;;16.30;73.40;;;;;;5039638;28;20025;-44
2022/07/06 06:58:06;;;;;;;2.00;0.70;;;16.40;73.50;;;;;;5069812;28;20024;-44
2022/07/06 07:00:34;;;;;;;4.93;0.80;;;16.50;73.50;;;;;;5051902;28;20031;-44
2022/07/06 07:02:59;;;;;;;4.22;0.63;;;16.70;73.30;;;;;;5069348;28;20020;-44
2022/07/06 07:05:25;;;;;;;4.00;0.70;;;16.90;73.00;;;;;;5069407;28;20034;-44
2022/07/06 07:07:50;;;;;;;2.78;0.70;;;16.90;72.40;;;;;;5069372;28;20021;-45
2022/07/06 07:10:16;;;;;;;2.08;0.82;;;17.10;71.50;;;;;;5052485;28;20040;-44
2022/07/06 07:12:46;;;;;;;2.35;0.60;;;17.20;69.60;;;;;;5069520;28;20039;-45
2022/07/06 07:15:12;;;;;;;4.47;0.50;;;17.40;69.40;;;;;;5051955;28;20103;-44
2022/07/06 07:17:38;;;;;;;1.75;0.40;;;17.40;67.50;;;;;;5051957;28;20036;-45
2022/07/06 07:20:04;;;;;;;2.20;0.65;;;17.30;66.10;;;;;;5052383;28;20108;-45
2022/07/06 07:22:30;;;;;;;3.65;0.85;;;17.20;66.60;;;;;;5049272;28;20033;-44
2022/07/06 07:24:56;;;;;;;2.58;0.70;;;17.10;66.90;;;;;;5049058;28;20044;-45
2022/07/06 07:27:21;;;;;;;2.70;0.70;;;17.10;67.70;;;;;;5031421;28;20473;-45
2022/07/06 07:29:47;;;;;;;3.83;0.85;;;17.10;67.60;;;;;;5049160;28;20032;-45
2022/07/06 07:32:15;;;;;;;4.88;0.63;;;17.10;67.50;;;;;;5049198;28;20068;-44
2022/07/06 07:34:40;;;;;;;6.15;1.20;;;17.10;67.70;;;;;;5048580;28;20108;-44
2022/07/06 07:37:08;;;;;;;5.78;0.70;;;17.20;69.20;;;;;;5030264;28;20112;-44
2022/07/06 07:39:34;;;;;;;3.30;0.55;;;17.10;68.40;;;;;;5047548;28;20025;-44
2022/07/06 07:41:59;;;;;;;3.40;0.70;;;17.30;68.80;;;;;;5047868;28;20107;-45
2022/07/06 07:44:27;;;;;;;3.40;0.60;;;17.40;67.80;;;;;;5048969;28;20111;-45
2022/07/06 07:46:52;;;;;;;4.95;0.70;;;17.40;68.60;;;;;;5048855;28;20025;-45
2022/07/06 07:49:21;;;;;;;3.95;0.70;;;17.80;68.30;;;;;;5036222;28;20028;-45
2022/07/06 07:51:52;;;;;;;5.35;1.00;;;17.90;67.20;;;;;;5051271;28;20532;-45
2022/07/06 07:54:18;;;;;;;3.22;0.65;;;18.20;67.70;;;;;;5055438;28;20033;-45
2022/07/06 07:56:46;;;;;;;4.47;0.65;;;18.20;66.80;;;;;;5048781;28;20083;-44
2022/07/06 07:59:11;;;;;;;6.50;1.50;;;18.00;65.10;;;;;;5048295;28;20040;-44
2022/07/06 08:01:37;;;;;;;3.50;0.80;;;18.00;64.30;;;;;;5030576;28;20339;-45
2022/07/06 08:04:03;;;;;;;5.45;1.00;;;17.90;64.70;;;;;;5048203;28;20107;-48
2022/07/06 08:06:29;;;;;;;5.65;0.98;;;17.80;66.10;;;;;;5030756;28;20108;-45
2022/07/06 08:08:54;;;;;;;6.82;0.70;;;17.70;67.80;;;;;;5031206;28;20032;-45
2022/07/06 08:11:20;;;;;;;5.40;1.15;;;17.40;69.90;;;;;;5048579;28;20027;-46
2022/07/06 08:13:48;;;;;;;2.72;0.82;;;17.30;70.10;;;;;;5047702;28;20373;-44
2022/07/06 08:16:14;;;;;;;7.50;1.10;;;17.40;70.80;;;;;;5048413;28;20104;-46
2022/07/06 08:18:39;;;;;;;4.32;0.85;;;17.50;70.50;;;;;;5048035;28;20116;-45
2022/07/06 08:21:05;;;;;;;2.95;0.70;;;17.70;69.30;;;;;;5048012;28;20039;-47
2022/07/06 08:23:31;;;;;;;7.38;1.55;;;17.90;69.10;;;;;;5047973;28;20164;-44
2022/07/06 08:25:56;;;;;;;4.15;0.90;;;17.90;67.20;;;;;;5048311;28;20546;-44
2022/07/06 08:28:22;;;;;;;3.25;0.70;;;18.00;67.50;;;;;;5047832;28;20032;-45
2022/07/06 08:30:50;;;;;;;5.22;0.98;;;18.10;67.30;;;;;;5048881;28;20043;-47
2022/07/06 08:33:18;;;;;;;4.70;0.75;;;18.20;66.50;;;;;;5047982;28;20060;-45
2022/07/06 08:35:44;;;;;;;2.28;0.68;;;18.30;67.70;;;;;;5048668;28;20021;-44
2022/07/06 08:38:10;;;;;;;5.43;0.60;;;18.30;66.30;;;;;;5047935;28;20056;-44
2022/07/06 08:40:39;;;;;;;4.63;0.77;;;18.30;66.50;;;;;;5030586;28;20025;-45
2022/07/06 08:43:05;;;;;;;3.50;0.70;;;18.70;65.60;;;;;;5047731;28;20057;-45
2022/07/06 08:45:34;;;;;;;2.67;0.60;;;19.00;63.40;;;;;;5047423;28;20402;-44
2022/07/06 08:48:05;;;;;;;4.38;0.73;;;19.60;61.90;;;;;;5050685;28;20028;-45
2022/07/06 08:50:31;;;;;;;3.00;0.57;;;19.90;60.60;;;;;;5055239;28;20070;-45
2022/07/06 08:52:57;;;;;;;2.78;0.47;;;20.20;58.70;;;;;;5072122;28;20075;-46
2022/07/06 08:55:25;;;;;;;6.28;0.90;;;20.20;58.70;;;;;;5071858;28;20447;-49
2022/07/06 08:57:51;;;;;;;5.45;0.80;;;20.10;57.60;;;;;;5072242;28;20449;-45
2022/07/06 09:00:17;;;;;;;2.00;0.50;;;19.80;58.60;;;;;;5054388;28;20024;-47
2022/07/06 09:02:44;;;;;;;2.75;0.50;;;19.80;58.20;;;;;;5054065;28;20024;-45
2022/07/06 09:05:14;;;;;;;3.28;0.47;;;19.70;56.90;;;;;;5036241;28;20028;-46
2022/07/06 09:07:43;;;;;;;1.25;0.20;;;20.00;58.50;;;;;;5071415;28;20051;-47
2022/07/06 09:10:09;;;;;;;3.78;0.47;;;20.40;57.30;;;;;;5071822;28;20056;-46
2022/07/06 09:12:37;;;;;;;7.05;0.68;;;20.80;55.50;;;;;;5071628;28;20028;-45
2022/07/06 09:15:03;;;;;;;5.82;0.70;;;20.90;54.50;;;;;;5071287;28;20094;-47
2022/07/06 09:17:29;;;;;;;2.25;0.40;;;21.10;53.90;;;;;;5054425;28;20453;-45
2022/07/06 09:19:56;;;;;;;2.45;0.60;;;21.20;55.20;;;;;;5065213;28;20060;-45
2022/07/06 09:22:32;;;;;;;3.17;0.63;;;21.30;55.40;;;;;;5051719;28;20025;-46
2022/07/06 09:25:10;;;;;;;3.47;0.50;;;21.30;56.40;;;;;;5033342;28;20508;-46
2022/07/06 09:27:49;;;;;;;4.93;0.60;;;20.90;57.30;;;;;;5040209;28;20063;-46
2022/07/06 09:30:17;;;;;;;3.00;0.63;;;21.30;55.50;;;;;;5051252;28;20025;-46
2022/07/06 09:32:48;;;;;;;1.80;0.60;;;21.20;55.50;;;;;;5033775;28;20052;-45
2022/07/06 09:35:31;;;;;;;3.20;0.70;;;21.00;55.20;;;;;;5050788;28;20075;-48
2022/07/06 09:38:11;;;;;;;4.00;0.60;;;20.90;54.50;;;;;;5050972;28;20033;-48
2022/07/06 09:40:44;;;;;;;3.30;0.88;;;20.40;55.90;;;;;;5033224;28;20098;-46
2022/07/06 09:43:22;;;;;;;2.92;0.70;;;19.80;57.40;;;;;;5050601;28;20055;-49
2022/07/06 09:45:52;;;;;;;3.15;0.80;;;19.40;58.40;;;;;;5030447;28;20025;-45
2022/07/06 09:48:23;;;;;;;4.53;0.70;;;19.40;59.60;;;;;;5045132;28;20025;-45
2022/07/06 09:50:57;;;;;;;5.28;0.73;;;20.10;60.10;;;;;;5050847;28;20029;-45
2022/07/06 09:53:26;;;;;;;3.35;0.60;;;19.90;59.10;;;;;;5049793;28;20580;-45
2022/07/06 09:55:53;;;;;;;6.25;0.73;;;20.40;61.20;;;;;;5050442;28;20454;-45
2022/07/06 09:58:20;;;;;;;4.57;0.85;;;20.30;58.90;;;;;;5049551;28;20032;-45
2022/07/06 10:00:49;;;;;;;3.22;0.70;;;19.90;59.30;;;;;;5050246;28;20024;-45
2022/07/06 10:03:16;;;;;;;5.80;1.17;;;19.80;61.30;;;;;;5066152;28;20033;-47
2022/07/06 10:05:43;;;;;;;4.40;1.25;;;19.70;61.60;;;;;;5050946;28;20450;-47
2022/07/06 10:08:10;;;;;;;5.38;0.63;;;19.60;61.90;;;;;;5031537;28;20025;-46
2022/07/06 10:10:38;;;;;;;2.80;0.85;;;19.30;61.40;;;;;;5033234;28;20039;-45
2022/07/06 10:13:08;;;;;;;5.53;0.60;;;18.90;63.30;;;;;;5050554;28;20110;-45
2022/07/06 10:15:35;;;;;;;4.80;0.90;;;19.70;62.40;;;;;;5049590;28;20036;-46
2022/07/06 10:18:04;;;;;;;3.83;1.05;;;20.10;62.60;;;;;;5049854;28;20054;-47
2022/07/06 10:20:32;;;;;;;4.30;1.17;;;20.40;61.70;;;;;;5049393;28;20434;-46
2022/07/06 10:23:00;;;;;;;4.38;0.55;;;21.00;60.30;;;;;;5049794;28;20024;-46
2022/07/06 10:25:27;;;;;;;4.13;0.60;;;20.90;57.50;;;;;;5050171;28;20041;-46
2022/07/06 10:27:53;;;;;;;3.95;0.93;;;20.30;59.30;;;;;;5049845;28;20036;-46
2022/07/06 10:30:20;;;;;;;4.25;1.02;;;20.20;60.60;;;;;;5049784;28;20491;-49
2022/07/06 10:32:48;;;;;;;5.78;1.00;;;20.70;63.20;;;;;;5050099;28;20493;-46
2022/07/06 10:35:14;;;;;;;4.47;0.70;;;20.80;59.90;;;;;;5049685;28;20029;-46
2022/07/06 10:37:41;;;;;;;4.10;1.10;;;20.40;59.50;;;;;;5049960;28;20032;-47
2022/07/06 10:42:59;;;;;;;8.45;1.02;;;19.40;62.20;;;;;;5049868;28;20064;-49
2022/07/06 10:45:28;;;;;;;5.65;1.15;;;19.40;63.10;;;;;;5030372;28;20108;-45
2022/07/06 10:48:12;;;;;;;4.72;0.90;;;19.90;62.70;;;;;;5047494;28;20458;-46
2022/07/06 10:50:46;;;;;;;4.28;0.73;;;19.40;61.00;;;;;;5050122;28;20025;-48
2022/07/06 10:53:17;;;;;;;4.05;0.55;;;19.50;62.90;;;;;;5061048;28;20040;-49
2022/07/06 10:55:47;;;;;;;3.25;0.70;;;20.00;59.80;;;;;;5070140;28;20122;-45
2022/07/06 10:58:15;;;;;;;5.25;1.17;;;20.40;60.90;;;;;;5069706;28;20021;-46
2022/07/06 11:00:55;;;;;;;2.95;0.60;;;20.80;57.70;;;;;;5069585;28;20039;-46
2022/07/06 11:03:50;;;;;;;2.65;0.55;;;21.00;56.30;;;;;;5052173;28;20099;-48
2022/07/06 11:06:24;;;;;;;1.70;0.60;;;21.20;58.60;;;;;;5033286;28;20065;-47
2022/07/06 11:08:53;;;;;;;4.85;0.90;;;20.50;56.40;;;;;;5032072;28;20041;-48
2022/07/06 11:11:31;;;;;;;;;;;20.10;59.40;;;;;;5049276;28;20073;-47
2022/07/06 11:14:03;;;;;;;4.03;0.75;;;20.30;59.80;;;;;;5032039;28;20290;-46
2022/07/06 11:16:34;;;;;;;6.88;0.52;;;20.80;59.10;;;;;;5069439;28;20028;-46
2022/07/06 11:19:04;;;;;;;4.13;0.57;;;20.90;59.00;;;;;;5051979;28;20029;-47
2022/07/06 11:21:51;;;;;;;3.97;0.82;;;21.00;58.50;;;;;;5034683;28;20482;-46
2022/07/06 11:24:20;;;;;;;2.40;0.52;;;21.40;58.20;;;;;;5041057;28;20033;-46
2022/07/06 11:26:49;;;;;;;5.95;0.85;;;21.50;56.40;;;;;;5031401;28;20045;-46
2022/07/06 11:29:17;;;;;;;4.18;0.57;;;21.60;56.70;;;;;;5059901;28;20031;-46
2022/07/06 11:31:45;;;;;;;1.73;0.52;;;21.10;56.20;;;;;;5069223;28;20055;-45
2022/07/06 11:34:14;;;;;;;2.28;0.65;;;21.40;57.90;;;;;;5067994;28;20028;-46
2022/07/06 11:36:40;;;;;;;3.60;0.60;;;21.10;54.90;;;;;;5049196;28;20104;-46
2022/07/06 11:39:06;;;;;;;1.10;0.38;;;21.10;56.50;;;;;;5049274;28;20040;-47
2022/07/06 11:41:32;;;;;;;6.88;0.63;;;21.30;57.30;;;;;;5049184;28;20052;-49
2022/07/06 11:43:58;;;;;;;1.55;0.40;;;21.60;54.90;;;;;;5048047;28;20112;-46
2022/07/06 11:46:25;;;;;;;2.17;0.75;;;21.40;52.80;;;;;;5048902;28;20044;-46
2022/07/06 11:48:59;;;;;;;4.53;0.75;;;21.60;53.90;;;;;;5048636;28;20036;-48
2022/07/06 11:51:27;;;;;;;2.67;0.68;;;21.70;51.60;;;;;;5031034;28;20040;-48
2022/07/06 11:54:01;;;;;;;4.13;0.70;;;21.50;51.40;;;;;;5030699;28;20126;-46
2022/07/06 11:56:28;;;;;;;5.57;0.95;;;21.60;51.40;;;;;;5048113;28;20021;-46
2022/07/06 11:58:56;;;;;;;2.47;0.52;;;21.50;51.70;;;;;;5048266;28;20473;-46
2022/07/06 12:01:24;;;;;;;2.15;0.47;;;21.60;51.60;;;;;;5048362;28;20075;-46
2022/07/06 12:03:53;;;;;;;2.75;0.77;;;21.70;53.40;;;;;;5048217;28;20032;-46
2022/07/06 12:06:24;;;;;;;8.10;0.90;;;21.60;53.00;;;;;;5048221;28;20044;-47
2022/07/06 12:08:57;;;;;;;4.82;0.60;;;21.60;50.70;;;;;;5048602;28;20073;-46
2022/07/06 12:11:30;;;;;;;1.77;0.50;;;21.20;51.00;;;;;;5049353;28;20029;-46
2022/07/06 12:14:02;;;;;;;1.88;0.40;;;20.90;50.50;;;;;;5048633;28;20035;-46
2022/07/06 12:16:33;;;;;;;2.72;0.60;;;20.90;51.70;;;;;;5048575;28;20037;-46
2022/07/06 12:18:58;;;;;;;7.88;1.00;;;20.80;53.30;;;;;;5048165;28;20029;-46
2022/07/06 12:21:25;;;;;;;2.63;0.68;;;20.80;53.30;;;;;;5048954;28;20036;-47
2022/07/06 12:23:54;;;;;;;2.42;0.95;;;20.80;52.10;;;;;;5052348;28;20112;-47
2022/07/06 12:26:25;;;;;;;2.38;0.60;;;20.50;52.80;;;;;;5015048;28;20028;-46
2022/07/06 12:29:13;;;;;;;5.43;1.15;;;20.70;52.30;;;;;;5051121;28;20465;-46
2022/07/06 12:31:49;;;;;;;5.25;0.73;;;20.80;51.80;;;;;;5052398;28;20103;-46
2022/07/06 12:34:27;;;;;;;1.90;0.57;;;20.90;50.70;;;;;;5034670;28;20155;-46
2022/07/06 12:36:55;;;;;;;3.17;0.50;;;20.80;52.60;;;;;;5052480;28;20099;-45
2022/07/06 12:39:27;;;;;;;3.15;0.98;;;20.90;52.80;;;;;;5052599;28;20041;-46
2022/07/06 12:42:04;;;;;;;2.88;0.60;;;20.80;53.50;;;;;;5052056;28;20087;-46
2022/07/06 12:44:30;;;;;;;2.63;0.47;;;20.90;53.60;;;;;;5066212;28;20055;-47
2022/07/06 12:47:03;;;;;;;2.95;0.60;;;21.20;53.80;;;;;;5052064;28;20572;-46
2022/07/06 12:49:29;;;;;;;5.97;1.00;;;20.70;54.50;;;;;;5051966;28;20020;-47
2022/07/06 12:52:00;;;;;;;4.15;0.98;;;20.20;56.50;;;;;;5069556;28;20032;-48
2022/07/06 12:54:34;;;;;;;5.32;1.08;;;20.10;56.50;;;;;;5053104;28;20035;-47
2022/07/06 12:57:07;;;;;;;3.80;1.15;;;20.30;57.30;;;;;;5072063;28;20163;-48
2022/07/06 12:59:43;;;;;;;5.00;1.25;;;20.60;57.70;;;;;;5072409;28;20050;-46